Doha, Qatar
Current Conditions -  °F | °C
As of 3:30 PM on Thursday 30 Oct 2014 (Local Time) from OTBD Reporting Station
Few Clouds Few Clouds  
Wind Chill: 90°   Ceiling: Unl
Heat Index: 95°   Visibility: 6mi
Dew Point: 70°   Wind: 8mph
Humidity: 52%   Direction: 70°ENE
Pressure: 29.85"   Gusts: NA
Location:  25.3°N, 51.51°E
Report Text: OTBD 301230Z 07007KT 040V100 9999 FEW030 32/21 Q1011 NOSIG
Loading
Personal Weather Stations






























Interactive Weather Map
Tropical Storm Tracking
New forecast layout! Learn more

10-Day Weather Forecast

Advertisements
Track Severe Weather on mobile